createdAt,value
2018-06-24T00:01:27.803Z,17.42
2018-06-24T00:03:56.038Z,17.41
2018-06-24T00:06:24.243Z,17.38
2018-06-24T00:08:52.593Z,17.37
2018-06-24T00:11:20.818Z,17.37
2018-06-24T00:13:49.102Z,17.37
2018-06-24T00:16:17.336Z,17.34
2018-06-24T00:18:45.869Z,17.32
2018-06-24T00:21:14.101Z,17.31
2018-06-24T00:23:42.329Z,17.29
2018-06-24T00:26:10.560Z,17.27
2018-06-24T00:28:38.796Z,17.28
2018-06-24T00:31:07.038Z,17.29
2018-06-24T00:33:35.295Z,17.26
2018-06-24T00:36:03.542Z,17.25
2018-06-24T00:38:31.753Z,17.26
2018-06-24T00:41:00.109Z,17.24
2018-06-24T00:43:28.324Z,17.21
2018-06-24T00:45:56.541Z,17.19
2018-06-24T00:48:24.816Z,17.19
2018-06-24T00:50:53.129Z,17.17
2018-06-24T00:53:21.357Z,17.17
2018-06-24T00:55:49.573Z,17.17
2018-06-24T00:58:17.864Z,17.16
2018-06-24T01:00:46.113Z,17.16
2018-06-24T01:03:14.369Z,17.15
2018-06-24T01:05:42.597Z,17.14
2018-06-24T01:08:10.816Z,17.13
2018-06-24T01:10:39.076Z,17.12
2018-06-24T01:13:07.362Z,17.11
2018-06-24T01:15:35.646Z,17.12
2018-06-24T01:18:03.909Z,17.13
2018-06-24T01:20:32.200Z,17.11
2018-06-24T01:23:00.505Z,17.12
2018-06-24T01:25:28.729Z,17.11
2018-06-24T01:27:57.048Z,17.13
2018-06-24T01:30:25.248Z,17.16
2018-06-24T01:32:53.497Z,17.15
2018-06-24T01:35:21.832Z,17.15
2018-06-24T01:37:50.088Z,17.17
2018-06-24T01:40:18.351Z,17.16
2018-06-24T01:42:46.650Z,17.17
2018-06-24T01:45:14.879Z,17.17
2018-06-24T01:47:43.090Z,17.17
2018-06-24T01:50:11.349Z,17.16
2018-06-24T01:52:39.626Z,17.16
2018-06-24T01:55:07.897Z,17.15
2018-06-24T01:57:36.168Z,17.17
2018-06-24T02:00:04.800Z,17.18
2018-06-24T02:02:33.017Z,17.18
2018-06-24T02:05:01.787Z,17.17
2018-06-24T02:07:30.038Z,17.18
2018-06-24T02:09:58.252Z,17.16
2018-06-24T02:12:26.489Z,17.17
2018-06-24T02:14:54.728Z,17.19
2018-06-24T02:17:22.944Z,17.20
2018-06-24T02:19:51.231Z,17.20
2018-06-24T02:22:19.435Z,17.19
2018-06-24T02:24:47.663Z,17.20
2018-06-24T02:27:15.876Z,17.20
2018-06-24T02:29:44.101Z,17.21
2018-06-24T02:32:12.360Z,17.21
2018-06-24T02:34:40.587Z,17.22
2018-06-24T02:37:08.831Z,17.20
2018-06-24T02:39:37.086Z,17.19
2018-06-24T02:42:05.420Z,17.15
2018-06-24T02:44:33.662Z,17.12
2018-06-24T02:47:01.910Z,17.09
2018-06-24T02:49:30.226Z,17.07
2018-06-24T02:51:58.449Z,17.06
2018-06-24T02:54:26.737Z,17.04
2018-06-24T02:56:55.026Z,17.02
2018-06-24T02:59:23.248Z,16.97
2018-06-24T03:01:51.456Z,16.92
2018-06-24T03:04:19.726Z,16.83
2018-06-24T03:06:48.021Z,16.81
2018-06-24T03:09:16.285Z,16.81
2018-06-24T03:11:44.492Z,16.81
2018-06-24T03:14:12.701Z,16.80
2018-06-24T03:16:40.957Z,16.81
2018-06-24T03:19:09.233Z,16.82
2018-06-24T03:21:37.472Z,16.81
2018-06-24T03:24:06.066Z,16.80
2018-06-24T03:26:34.315Z,16.77
2018-06-24T03:29:02.509Z,16.77
2018-06-24T03:31:30.758Z,16.78
2018-06-24T03:33:59.019Z,16.77
2018-06-24T03:36:27.258Z,16.79
2018-06-24T03:38:55.476Z,16.77
2018-06-24T03:41:23.793Z,16.79
2018-06-24T03:43:52.002Z,16.78
2018-06-24T03:46:20.271Z,16.76
2018-06-24T03:48:48.533Z,16.75
2018-06-24T03:51:16.857Z,16.76
2018-06-24T03:53:45.086Z,16.76
2018-06-24T03:56:13.320Z,16.76
2018-06-24T03:58:41.545Z,16.75
2018-06-24T04:01:09.881Z,16.74
2018-06-24T04:03:38.211Z,16.72
2018-06-24T04:06:06.454Z,16.70
2018-06-24T04:08:34.720Z,16.67
2018-06-24T04:11:02.985Z,16.64
2018-06-24T04:13:31.196Z,16.61
2018-06-24T04:16:07.461Z,16.60
2018-06-24T04:18:43.629Z,16.59
2018-06-24T04:21:13.864Z,16.55
2018-06-24T04:23:43.375Z,16.52
2018-06-24T04:26:11.969Z,16.48
2018-06-24T04:28:40.482Z,16.47
2018-06-24T04:31:09.694Z,16.48
2018-06-24T04:33:37.904Z,16.48
2018-06-24T04:36:06.469Z,16.49
2018-06-24T04:38:34.767Z,16.47
2018-06-24T04:41:03.193Z,16.45
2018-06-24T04:43:31.513Z,16.44
2018-06-24T04:46:01.427Z,16.45
2018-06-24T04:48:29.785Z,16.45
2018-06-24T04:50:58.045Z,16.43
2018-06-24T04:53:26.260Z,16.44
2018-06-24T04:55:54.534Z,16.45
2018-06-24T04:58:22.816Z,16.43
2018-06-24T05:00:51.143Z,16.46
2018-06-24T05:03:19.364Z,16.47
2018-06-24T05:05:47.639Z,16.49
2018-06-24T05:08:15.924Z,16.50
2018-06-24T05:10:44.646Z,16.53
2018-06-24T05:13:12.985Z,16.57
2018-06-24T05:15:41.274Z,16.59
2018-06-24T05:18:09.545Z,16.61
2018-06-24T05:20:37.796Z,16.64
2018-06-24T05:23:06.068Z,16.67
2018-06-24T05:25:34.385Z,16.70
2018-06-24T05:28:02.621Z,16.70
2018-06-24T05:30:30.878Z,16.72
2018-06-24T05:32:59.637Z,16.75
2018-06-24T05:35:27.920Z,16.76
2018-06-24T05:37:56.209Z,16.80
2018-06-24T05:40:24.469Z,16.84
2018-06-24T05:42:52.803Z,16.90
2018-06-24T05:45:21.028Z,16.94
2018-06-24T05:47:49.401Z,16.96
2018-06-24T05:50:17.644Z,17.03
2018-06-24T05:52:45.901Z,17.09
2018-06-24T05:55:14.199Z,17.14
2018-06-24T05:57:42.422Z,17.19
2018-06-24T06:00:16.222Z,17.21
2018-06-24T06:02:44.541Z,17.26
2018-06-24T06:05:12.788Z,17.29
2018-06-24T06:07:41.030Z,17.36
2018-06-24T06:10:09.372Z,17.39
2018-06-24T06:12:37.689Z,17.45
2018-06-24T06:15:06.010Z,17.48
2018-06-24T06:17:34.221Z,17.51
2018-06-24T06:20:02.495Z,17.55
2018-06-24T06:22:30.709Z,17.57
2018-06-24T06:24:59.152Z,17.58
2018-06-24T06:27:27.417Z,17.60
2018-06-24T06:29:55.685Z,17.60
2018-06-24T06:32:23.953Z,17.61
2018-06-24T06:34:52.219Z,17.62
2018-06-24T06:37:20.454Z,17.61
2018-06-24T06:39:48.743Z,17.62
2018-06-24T06:42:16.956Z,17.63
2018-06-24T06:44:45.216Z,17.65
2018-06-24T06:47:13.509Z,17.69
2018-06-24T06:49:41.818Z,17.72
2018-06-24T06:52:10.095Z,17.76
2018-06-24T06:54:38.620Z,17.80
2018-06-24T06:57:07.836Z,17.85
2018-06-24T06:59:36.064Z,17.88
2018-06-24T07:02:04.345Z,17.92
2018-06-24T07:04:32.601Z,17.97
2018-06-24T07:07:00.936Z,18.03
2018-06-24T07:09:29.220Z,18.08
2018-06-24T07:11:57.467Z,18.13
2018-06-24T07:14:25.721Z,18.20
2018-06-24T07:16:54.093Z,18.24
2018-06-24T07:19:22.353Z,18.29
2018-06-24T07:21:50.624Z,18.32
2018-06-24T07:24:18.874Z,18.37
2018-06-24T07:26:47.085Z,18.38
2018-06-24T07:29:15.333Z,18.41
2018-06-24T07:31:43.601Z,18.43
2018-06-24T07:34:11.876Z,18.51
2018-06-24T07:36:40.099Z,18.58
2018-06-24T07:39:09.984Z,18.65
2018-06-24T07:41:38.216Z,18.70
2018-06-24T07:44:06.452Z,18.74
2018-06-24T07:46:34.804Z,18.72
2018-06-24T07:49:03.085Z,18.70
2018-06-24T07:51:31.337Z,18.67
2018-06-24T07:53:59.607Z,18.62
2018-06-24T07:56:27.928Z,18.57
2018-06-24T07:58:56.157Z,18.56
2018-06-24T08:01:24.505Z,18.57
2018-06-24T08:03:52.757Z,18.58
2018-06-24T08:06:20.976Z,18.60
2018-06-24T08:08:49.257Z,18.63
2018-06-24T08:11:17.495Z,18.66
2018-06-24T08:13:45.700Z,18.68
2018-06-24T08:16:13.961Z,18.70
2018-06-24T08:18:42.197Z,18.74
2018-06-24T08:21:10.450Z,18.74
2018-06-24T08:23:38.632Z,18.82
2018-06-24T08:26:07.013Z,18.81
2018-06-24T08:28:35.236Z,18.80
2018-06-24T08:31:03.533Z,18.81
2018-06-24T08:33:31.801Z,18.81
2018-06-24T08:36:00.019Z,18.82
2018-06-24T08:38:28.276Z,18.84
2018-06-24T08:40:56.533Z,18.88
2018-06-24T08:43:24.781Z,18.94
2018-06-24T08:45:53.043Z,19.02
2018-06-24T08:48:21.318Z,19.08
2018-06-24T08:50:49.552Z,19.15
2018-06-24T08:53:17.921Z,19.22
2018-06-24T08:55:46.261Z,19.26
2018-06-24T08:58:14.488Z,19.29
2018-06-24T09:00:42.776Z,19.33
2018-06-24T09:03:10.959Z,19.36
2018-06-24T09:05:39.208Z,19.40
2018-06-24T09:08:07.477Z,19.44
2018-06-24T09:10:35.768Z,19.43
2018-06-24T09:13:04.021Z,19.45
2018-06-24T09:15:32.296Z,19.47
2018-06-24T09:18:00.591Z,19.45
2018-06-24T09:20:28.813Z,19.50
2018-06-24T09:22:57.068Z,19.51
2018-06-24T09:25:25.332Z,19.57
2018-06-24T09:27:53.632Z,19.58
2018-06-24T09:30:21.849Z,19.58
2018-06-24T09:32:50.109Z,19.55
2018-06-24T09:35:18.378Z,19.57
2018-06-24T09:37:46.600Z,19.58
2018-06-24T09:40:14.848Z,19.54
2018-06-24T09:42:43.170Z,19.47
2018-06-24T09:45:11.463Z,19.46
2018-06-24T09:47:39.693Z,19.46
2018-06-24T09:50:08.324Z,19.49
2018-06-24T09:52:36.633Z,19.54
2018-06-24T09:55:04.915Z,19.59
2018-06-24T09:57:33.195Z,19.64
2018-06-24T10:00:01.433Z,19.68
2018-06-24T10:02:29.736Z,19.62
2018-06-24T10:04:58.009Z,19.62
2018-06-24T10:07:26.281Z,19.66
2018-06-24T10:09:54.532Z,19.72
2018-06-24T10:12:22.819Z,19.79
2018-06-24T10:14:51.048Z,19.83
2018-06-24T10:17:19.257Z,19.88
2018-06-24T10:19:47.478Z,19.93
2018-06-24T10:22:15.762Z,19.98
2018-06-24T10:24:44.004Z,19.98
2018-06-24T10:27:12.274Z,20.07
2018-06-24T10:29:40.672Z,20.14
2018-06-24T10:32:08.910Z,20.23
2018-06-24T10:34:37.212Z,20.30
2018-06-24T10:37:05.528Z,20.38
2018-06-24T10:39:33.757Z,20.43
2018-06-24T10:42:02.013Z,20.49
2018-06-24T10:44:30.258Z,20.55
2018-06-24T10:46:58.589Z,20.56
2018-06-24T10:49:26.924Z,20.57
2018-06-24T10:51:55.233Z,20.73
2018-06-24T10:54:23.446Z,20.95
2018-06-24T10:56:51.701Z,21.26
2018-06-24T10:59:19.918Z,21.55
2018-06-24T11:01:48.277Z,21.78
2018-06-24T11:04:16.626Z,21.75
2018-06-24T11:06:44.873Z,21.52
2018-06-24T11:09:13.073Z,21.52
2018-06-24T11:11:41.372Z,21.66
2018-06-24T11:14:09.651Z,21.79
2018-06-24T11:16:38.132Z,21.97
2018-06-24T11:19:06.504Z,22.18
2018-06-24T11:21:34.769Z,22.27
2018-06-24T11:24:03.113Z,22.16
2018-06-24T11:26:31.345Z,22.04
2018-06-24T11:28:59.628Z,21.92
2018-06-24T11:31:27.889Z,21.87
2018-06-24T11:33:56.140Z,21.79
2018-06-24T11:36:24.403Z,21.75
2018-06-24T11:38:52.616Z,21.81
2018-06-24T11:41:20.865Z,21.85
2018-06-24T11:43:49.105Z,21.84
2018-06-24T11:46:17.404Z,21.93
2018-06-24T11:48:45.693Z,22.02
2018-06-24T11:51:13.916Z,22.10
2018-06-24T11:53:42.181Z,22.24
2018-06-24T11:56:10.469Z,22.28
2018-06-24T11:58:38.736Z,22.32
2018-06-24T12:01:07.020Z,22.39
2018-06-24T12:03:35.334Z,22.34
2018-06-24T12:06:03.740Z,22.24
2018-06-24T12:08:32.025Z,22.18
2018-06-24T12:11:00.361Z,22.12
2018-06-24T12:13:28.694Z,22.09
2018-06-24T12:15:56.976Z,22.00
2018-06-24T12:18:25.238Z,21.91
2018-06-24T12:20:53.488Z,22.09
2018-06-24T12:23:21.760Z,22.22
2018-06-24T12:25:50.013Z,22.36
2018-06-24T12:28:18.278Z,22.41
2018-06-24T12:30:46.617Z,22.42
2018-06-24T12:33:14.856Z,22.27
2018-06-24T12:35:43.878Z,22.18
2018-06-24T12:38:12.109Z,22.09
2018-06-24T12:40:40.424Z,22.02
2018-06-24T12:43:08.693Z,22.03
2018-06-24T12:45:36.984Z,22.11
2018-06-24T12:48:05.434Z,22.17
2018-06-24T12:50:33.707Z,22.27
2018-06-24T12:53:02.063Z,22.34
2018-06-24T12:55:31.548Z,22.40
2018-06-24T12:57:59.786Z,22.32
2018-06-24T13:00:28.676Z,22.35
2018-06-24T13:02:56.529Z,22.29
2018-06-24T13:05:24.891Z,22.22
2018-06-24T13:07:53.249Z,22.06
2018-06-24T13:10:21.679Z,22.07
2018-06-24T13:12:50.396Z,22.01
2018-06-24T13:15:18.751Z,22.00
2018-06-24T13:17:47.077Z,21.93
2018-06-24T13:20:15.449Z,21.86
2018-06-24T13:22:43.863Z,21.88
2018-06-24T13:25:12.445Z,21.85
2018-06-24T13:27:40.797Z,21.86
2018-06-24T13:30:09.189Z,21.86
2018-06-24T13:32:37.512Z,21.87
2018-06-24T13:35:05.838Z,21.92
2018-06-24T13:37:34.252Z,22.01
2018-06-24T13:40:05.002Z,22.10
2018-06-24T13:42:33.250Z,22.20
2018-06-24T13:45:01.625Z,22.17
2018-06-24T13:47:29.893Z,22.09
2018-06-24T13:49:58.160Z,21.95
2018-06-24T13:52:26.465Z,21.79
2018-06-24T13:54:54.726Z,21.71
2018-06-24T13:57:22.973Z,21.69
2018-06-24T13:59:51.285Z,21.70
2018-06-24T14:02:19.608Z,21.68
2018-06-24T14:04:47.851Z,21.64
2018-06-24T14:07:16.090Z,21.65
2018-06-24T14:09:44.432Z,21.68
2018-06-24T14:12:12.748Z,21.74
2018-06-24T14:14:41.157Z,21.74
2018-06-24T14:17:09.436Z,21.65
2018-06-24T14:19:37.860Z,21.59
2018-06-24T14:22:06.213Z,21.52
2018-06-24T14:24:34.546Z,21.45
2018-06-24T14:27:03.039Z,21.36
2018-06-24T14:29:31.351Z,21.23
2018-06-24T14:31:59.609Z,21.20
2018-06-24T14:34:27.865Z,21.18
2018-06-24T14:36:57.102Z,21.19
2018-06-24T14:39:25.346Z,21.24
2018-06-24T14:41:53.553Z,21.25
2018-06-24T14:44:21.936Z,21.24
2018-06-24T14:46:50.275Z,21.22
2018-06-24T14:49:18.589Z,21.22
2018-06-24T14:51:47.097Z,21.25
2018-06-24T14:54:15.766Z,21.32
2018-06-24T14:56:44.137Z,21.37
2018-06-24T14:59:12.435Z,21.41
2018-06-24T15:01:40.776Z,21.40
2018-06-24T15:04:09.129Z,21.34
2018-06-24T15:06:37.555Z,21.30
2018-06-24T15:09:08.092Z,21.27
2018-06-24T15:11:37.592Z,21.23
2018-06-24T15:14:06.229Z,21.19
2018-06-24T15:16:34.885Z,21.13
2018-06-24T15:19:03.241Z,21.01
2018-06-24T15:21:31.518Z,20.95
2018-06-24T15:23:59.855Z,20.92
2018-06-24T15:26:28.153Z,20.93
2018-06-24T15:28:56.453Z,20.91
2018-06-24T15:31:25.049Z,20.91
2018-06-24T15:33:53.356Z,20.97
2018-06-24T15:36:21.745Z,21.02
2018-06-24T15:38:50.081Z,21.05
2018-06-24T15:41:18.397Z,20.99
2018-06-24T15:43:46.667Z,20.93
2018-06-24T15:46:15.013Z,20.91
2018-06-24T15:48:46.184Z,20.88
2018-06-24T15:51:17.982Z,20.87
2018-06-24T15:53:46.523Z,20.84
2018-06-24T15:56:14.885Z,20.82
2018-06-24T15:58:43.180Z,20.79
2018-06-24T16:01:11.537Z,20.75
2018-06-24T16:03:39.920Z,20.68
2018-06-24T16:06:08.237Z,20.65
2018-06-24T16:08:37.206Z,20.61
2018-06-24T16:11:05.792Z,20.59
2018-06-24T16:13:34.483Z,20.56
2018-06-24T16:16:02.874Z,20.48
2018-06-24T16:18:31.377Z,20.47
2018-06-24T16:21:01.162Z,20.51
2018-06-24T16:23:29.818Z,20.62
2018-06-24T16:25:58.335Z,20.83
2018-06-24T16:28:27.160Z,21.07
2018-06-24T16:30:56.666Z,21.19
2018-06-24T16:33:25.127Z,21.18
2018-06-24T16:35:53.583Z,21.11
2018-06-24T16:38:22.008Z,21.03
2018-06-24T16:40:51.047Z,20.95
2018-06-24T16:43:19.386Z,20.88
2018-06-24T16:45:47.985Z,20.77
2018-06-24T16:48:17.083Z,20.60
2018-06-24T16:50:45.707Z,20.51
2018-06-24T16:53:14.157Z,20.45
2018-06-24T16:55:42.657Z,20.41
2018-06-24T16:58:11.693Z,20.40
2018-06-24T17:00:39.937Z,20.39
2018-06-24T17:03:08.221Z,20.40
2018-06-24T17:05:36.505Z,20.40
2018-06-24T17:08:04.869Z,20.39
2018-06-24T17:10:33.186Z,20.34
2018-06-24T17:13:01.578Z,20.31
2018-06-24T17:15:29.853Z,20.30
2018-06-24T17:17:58.109Z,20.32
2018-06-24T17:20:26.448Z,20.34
2018-06-24T17:22:54.961Z,20.35
2018-06-24T17:25:23.317Z,20.36
2018-06-24T17:27:51.580Z,20.35
2018-06-24T17:30:19.809Z,20.33
2018-06-24T17:32:48.181Z,20.28
2018-06-24T17:35:16.481Z,20.26
2018-06-24T17:37:44.841Z,20.26
2018-06-24T17:40:13.080Z,20.25
2018-06-24T17:42:41.317Z,20.25
2018-06-24T17:45:09.705Z,20.25
2018-06-24T17:47:38.230Z,20.24
2018-06-24T17:50:06.381Z,20.23
2018-06-24T17:52:34.609Z,20.24
2018-06-24T17:55:02.808Z,20.22
2018-06-24T17:57:31.060Z,20.23
2018-06-24T17:59:59.961Z,20.20
2018-06-24T18:02:28.217Z,20.20
2018-06-24T18:04:56.492Z,20.19
2018-06-24T18:07:24.824Z,20.16
2018-06-24T18:09:53.120Z,20.11
2018-06-24T18:12:21.453Z,20.09
2018-06-24T18:14:49.725Z,20.07
2018-06-24T18:17:17.981Z,20.05
2018-06-24T18:19:46.204Z,20.04
2018-06-24T18:22:14.440Z,20.03
2018-06-24T18:24:42.697Z,20.05
2018-06-24T18:27:10.969Z,20.03
2018-06-24T18:29:39.271Z,20.02
2018-06-24T18:32:07.518Z,20.01
2018-06-24T18:34:35.748Z,20.01
2018-06-24T18:37:04.125Z,20.01
2018-06-24T18:39:32.404Z,19.98
2018-06-24T18:42:00.626Z,19.97
2018-06-24T18:44:28.881Z,19.95
2018-06-24T18:46:57.093Z,19.92
2018-06-24T18:49:25.391Z,19.91
2018-06-24T18:51:53.609Z,19.90
2018-06-24T18:54:22.034Z,19.88
2018-06-24T18:56:50.310Z,19.87
2018-06-24T18:59:18.657Z,19.85
2018-06-24T19:01:46.994Z,19.83
2018-06-24T19:04:15.209Z,19.81
2018-06-24T19:06:43.417Z,19.83
2018-06-24T19:09:13.312Z,19.81
2018-06-24T19:11:41.960Z,19.79
2018-06-24T19:14:10.240Z,19.75
2018-06-24T19:16:39.120Z,19.73
2018-06-24T19:19:07.421Z,19.70
2018-06-24T19:21:35.644Z,19.73
2018-06-24T19:24:03.989Z,19.72
2018-06-24T19:26:32.252Z,19.73
2018-06-24T19:29:00.641Z,19.71
2018-06-24T19:31:28.894Z,19.70
2018-06-24T19:33:57.125Z,19.68
2018-06-24T19:36:25.341Z,19.66
2018-06-24T19:38:53.869Z,19.66
2018-06-24T19:41:22.136Z,19.66
2018-06-24T19:43:50.400Z,19.66
2018-06-24T19:46:18.632Z,19.67
2018-06-24T19:48:46.864Z,19.64
2018-06-24T19:51:15.093Z,19.63
2018-06-24T19:53:43.333Z,19.61
2018-06-24T19:56:11.565Z,19.60
2018-06-24T19:58:39.777Z,19.57
2018-06-24T20:01:08.021Z,19.55
2018-06-24T20:03:36.280Z,19.55
2018-06-24T20:06:04.564Z,19.54
2018-06-24T20:08:32.792Z,19.51
2018-06-24T20:11:01.061Z,19.48
2018-06-24T20:13:29.314Z,19.46
2018-06-24T20:15:57.506Z,19.44
2018-06-24T20:18:25.746Z,19.42
2018-06-24T20:20:53.977Z,19.43
2018-06-24T20:23:22.177Z,19.41
2018-06-24T20:25:50.505Z,19.40
2018-06-24T20:28:18.777Z,19.39
2018-06-24T20:30:46.992Z,19.41
2018-06-24T20:33:15.190Z,19.40
2018-06-24T20:35:43.477Z,19.38
2018-06-24T20:38:11.753Z,19.38
2018-06-24T20:40:40.077Z,19.34
2018-06-24T20:43:08.301Z,19.31
2018-06-24T20:45:36.507Z,19.28
2018-06-24T20:48:04.921Z,19.26
2018-06-24T20:50:33.169Z,19.24
2018-06-24T20:53:01.418Z,19.22
2018-06-24T20:55:29.657Z,19.22
2018-06-24T20:57:57.880Z,19.21
2018-06-24T21:00:26.085Z,19.19
2018-06-24T21:02:54.344Z,19.15
2018-06-24T21:05:22.574Z,19.00
2018-06-24T21:07:50.855Z,18.93
2018-06-24T21:10:19.065Z,18.85
2018-06-24T21:12:47.265Z,18.74
2018-06-24T21:15:15.481Z,18.71
2018-06-24T21:17:43.716Z,18.64
2018-06-24T21:20:11.945Z,18.60
2018-06-24T21:22:40.277Z,18.56
2018-06-24T21:25:08.539Z,18.52
2018-06-24T21:27:36.828Z,18.47
2018-06-24T21:30:05.268Z,18.45
2018-06-24T21:32:33.516Z,18.41
2018-06-24T21:35:01.744Z,18.39
2018-06-24T21:37:29.993Z,18.40
2018-06-24T21:39:58.213Z,18.40
2018-06-24T21:42:26.486Z,18.42
2018-06-24T21:44:54.754Z,18.42
2018-06-24T21:47:22.980Z,18.41
2018-06-24T21:49:51.431Z,18.41
2018-06-24T21:52:19.640Z,18.43
2018-06-24T21:54:47.861Z,18.42
2018-06-24T21:57:16.093Z,18.41
2018-06-24T21:59:44.316Z,18.40
2018-06-24T22:02:12.597Z,18.41
2018-06-24T22:04:40.772Z,18.42
2018-06-24T22:07:09.036Z,18.35
2018-06-24T22:09:37.273Z,18.35
2018-06-24T22:12:05.597Z,18.35
2018-06-24T22:14:33.814Z,18.33
2018-06-24T22:17:02.025Z,18.30
2018-06-24T22:19:30.284Z,18.27
2018-06-24T22:21:58.571Z,18.24
2018-06-24T22:24:27.018Z,18.21
2018-06-24T22:26:55.229Z,18.19
2018-06-24T22:29:23.435Z,18.17
2018-06-24T22:31:51.674Z,18.20
2018-06-24T22:34:19.924Z,18.20
2018-06-24T22:36:48.154Z,18.22
2018-06-24T22:39:16.382Z,18.21
2018-06-24T22:41:44.585Z,18.17
2018-06-24T22:44:12.825Z,18.17
2018-06-24T22:46:41.073Z,18.16
2018-06-24T22:49:09.293Z,18.13
2018-06-24T22:51:37.573Z,18.11
2018-06-24T22:54:06.041Z,18.10
2018-06-24T22:56:34.268Z,18.11
2018-06-24T22:59:13.896Z,18.14
2018-06-24T23:01:42.152Z,18.13
2018-06-24T23:04:10.381Z,18.12
2018-06-24T23:06:38.645Z,18.12
2018-06-24T23:09:07.993Z,18.15
2018-06-24T23:11:36.223Z,18.14
2018-06-24T23:14:04.487Z,18.12
2018-06-24T23:16:32.748Z,18.08
2018-06-24T23:19:00.956Z,18.06
2018-06-24T23:21:29.187Z,18.06
2018-06-24T23:23:57.550Z,18.08
2018-06-24T23:26:25.773Z,18.11
2018-06-24T23:28:53.998Z,18.12
2018-06-24T23:31:22.229Z,18.07
2018-06-24T23:33:50.505Z,18.04
2018-06-24T23:36:18.800Z,18.02
2018-06-24T23:38:47.009Z,18.01
2018-06-24T23:41:15.236Z,18.01
2018-06-24T23:43:43.690Z,18.01
2018-06-24T23:46:11.924Z,17.99
2018-06-24T23:48:40.216Z,17.99
2018-06-24T23:51:08.520Z,17.98
2018-06-24T23:53:36.733Z,17.99
2018-06-24T23:56:04.944Z,17.98
2018-06-24T23:58:33.160Z,17.97
